Toone, TN (38381)

5:19 PM CDT en Septiembre 01, 2015 (GMT -0500)
odie home station | | Change Station
CLOSE
Current Station
Estación meteorológica personal
Location: Bolivar, TN
Altura: 440 ft
Estaciones meteorológicas cercanas

Alt 440 ft 35.29 °N, 89.02 °W | Updated 16 seconds ago

Parcialmente nublado
Parcialmente nublado
87.4 ° F
Sensación térmica 95 ° F
N
1.7
Viento Variable Viento desde ESE
Gusts 2.2 mph

Hoy
Alta -- | Baja -- ° F
--% Posibilidad de precipitaciones
Ayer
Alta -- | Baja -- ° F
Precip. -- pul
6:27 AM 7:23 PM
Gibosa menguante, 86% visible
Presión 30.06 pul
Visibilidad 10.0 Millas
Nubes Despejado
Índice de calor 95 ° F
Punto de rocío 73 ° F
Humedad 62%
Precipitaciones 0.00 pul
Espesor de la nieve No disponible.
UV 3 de una escala de 12
Polen 9.10 de una escala de 12
Calidad del aire No disponible.
Flu Activity No disponible.
METAR KMKL 012153Z 00000KT 10SM CLR 30/21 A3007 RMK AO2 SLP178 T03000206
Presión 30.06 pul
Visibilidad 10.0 Millas
Nubes Despejado
Índice de calor 95 ° F
Punto de rocío 73 ° F
Humedad 62%
Precipitaciones 0.00 pul
Espesor de la nieve No disponible.
UV 3 de una escala de 12
Polen 9.10 de una escala de 12
Calidad del aire No disponible.
Flu Activity No disponible.
METAR KMKL 012153Z 00000KT 10SM CLR 30/21 A3007 RMK AO2 SLP178 T03000206

10-Day Weather Forecast

×

Almanac

Astronomía

Sep. 01, 2015 Salida Puesta
Hora real
Crepúsculo civil
Crepúsculo náutico
Crepúsculo astronómico
Luna
Horas de luz
Horas de luz
Tomorrow will be .
, % of the Moon is Illuminated

Extremos de hoy

Máximos del estado Bajos del estado

Community

WunderPhotos

Upload Photos

1,851,632 ¡fotos cargadas!

WunderBlogs® & News

Nearby

Calidad del aire

  Calidad del aire Índice AQ Contaminante
Not available.

Grosos de nieve

Estación Profundido Altura

Actividad de terremotos

Ciudad Distance Mag. Tiempo y dato
Magnitud mínima muestra es 2,5.

Temperaturas de aguas costeras

Lugar Temperatura

Stations

Estaciones meteorológicas cercanas

Ubicación de la estación Temp. Vientos helados Punto de rocío Humedad Viento Precip. Alt Actualizado Tipo